sensor_id;sensor_type;location;lat;lon;timestamp;P1;durP1;ratioP1;P2;durP2;ratioP2
4214;SDS011;2121;48.062;7.850;2023-12-07T00:01:49;6.03;;;5.23;;
4214;SDS011;2121;48.062;7.850;2023-12-07T00:04:14;9.80;;;5.90;;
4214;SDS011;2121;48.062;7.850;2023-12-07T00:06:40;8.20;;;5.03;;
4214;SDS011;2121;48.062;7.850;2023-12-07T00:09:06;6.33;;;5.20;;
4214;SDS011;2121;48.062;7.850;2023-12-07T00:11:31;5.50;;;4.87;;
4214;SDS011;2121;48.062;7.850;2023-12-07T00:13:57;8.37;;;5.10;;
4214;SDS011;2121;48.062;7.850;2023-12-07T00:16:23;11.07;;;6.00;;
4214;SDS011;2121;48.062;7.850;2023-12-07T00:18:48;8.13;;;5.10;;
4214;SDS011;2121;48.062;7.850;2023-12-07T00:21:14;6.80;;;5.37;;
4214;SDS011;2121;48.062;7.850;2023-12-07T00:23:40;6.03;;;4.50;;
4214;SDS011;2121;48.062;7.850;2023-12-07T00:26:06;9.37;;;5.60;;
4214;SDS011;2121;48.062;7.850;2023-12-07T00:28:31;6.80;;;5.57;;
4214;SDS011;2121;48.062;7.850;2023-12-07T00:30:57;7.67;;;4.80;;
4214;SDS011;2121;48.062;7.850;2023-12-07T00:33:23;10.80;;;6.07;;
4214;SDS011;2121;48.062;7.850;2023-12-07T00:35:48;8.10;;;6.40;;
4214;SDS011;2121;48.062;7.850;2023-12-07T00:38:14;6.87;;;6.20;;
4214;SDS011;2121;48.062;7.850;2023-12-07T00:40:40;10.30;;;6.60;;
4214;SDS011;2121;48.062;7.850;2023-12-07T00:43:06;7.40;;;5.37;;
4214;SDS011;2121;48.062;7.850;2023-12-07T00:45:32;8.10;;;5.93;;
4214;SDS011;2121;48.062;7.850;2023-12-07T00:47:58;7.90;;;6.97;;
4214;SDS011;2121;48.062;7.850;2023-12-07T00:50:24;10.00;;;6.97;;
4214;SDS011;2121;48.062;7.850;2023-12-07T00:52:49;9.50;;;6.20;;
4214;SDS011;2121;48.062;7.850;2023-12-07T00:55:15;6.30;;;5.53;;
4214;SDS011;2121;48.062;7.850;2023-12-07T00:57:41;6.73;;;5.20;;
4214;SDS011;2121;48.062;7.850;2023-12-07T01:00:07;9.93;;;6.57;;
4214;SDS011;2121;48.062;7.850;2023-12-07T01:02:33;7.53;;;5.47;;
4214;SDS011;2121;48.062;7.850;2023-12-07T01:04:59;6.50;;;5.43;;
4214;SDS011;2121;48.062;7.850;2023-12-07T01:07:25;8.33;;;5.87;;
4214;SDS011;2121;48.062;7.850;2023-12-07T01:09:51;8.03;;;5.87;;
4214;SDS011;2121;48.062;7.850;2023-12-07T01:12:17;8.80;;;5.73;;
4214;SDS011;2121;48.062;7.850;2023-12-07T01:14:43;8.80;;;5.33;;
4214;SDS011;2121;48.062;7.850;2023-12-07T01:17:09;10.80;;;5.33;;
4214;SDS011;2121;48.062;7.850;2023-12-07T01:19:34;9.20;;;5.90;;
4214;SDS011;2121;48.062;7.850;2023-12-07T01:22:00;8.67;;;6.20;;
4214;SDS011;2121;48.062;7.850;2023-12-07T01:24:26;10.07;;;5.20;;
4214;SDS011;2121;48.062;7.850;2023-12-07T01:26:52;7.83;;;6.00;;
4214;SDS011;2121;48.062;7.850;2023-12-07T01:29:17;7.60;;;5.53;;
4214;SDS011;2121;48.062;7.850;2023-12-07T01:31:45;7.80;;;5.10;;
4214;SDS011;2121;48.062;7.850;2023-12-07T01:34:10;5.60;;;4.50;;
4214;SDS011;2121;48.062;7.850;2023-12-07T01:36:36;10.40;;;6.03;;
4214;SDS011;2121;48.062;7.850;2023-12-07T01:39:02;9.67;;;5.80;;
4214;SDS011;2121;48.062;7.850;2023-12-07T01:41:28;8.90;;;6.40;;
4214;SDS011;2121;48.062;7.850;2023-12-07T01:43:53;7.07;;;5.30;;
4214;SDS011;2121;48.062;7.850;2023-12-07T01:46:19;6.90;;;4.70;;
4214;SDS011;2121;48.062;7.850;2023-12-07T01:48:45;6.30;;;5.37;;
4214;SDS011;2121;48.062;7.850;2023-12-07T01:51:14;5.30;;;4.73;;
4214;SDS011;2121;48.062;7.850;2023-12-07T01:53:41;7.00;;;4.80;;
4214;SDS011;2121;48.062;7.850;2023-12-07T01:56:08;6.07;;;4.50;;
4214;SDS011;2121;48.062;7.850;2023-12-07T01:58:35;7.37;;;4.90;;
4214;SDS011;2121;48.062;7.850;2023-12-07T02:01:01;6.90;;;4.67;;
4214;SDS011;2121;48.062;7.850;2023-12-07T02:03:29;5.53;;;4.97;;
4214;SDS011;2121;48.062;7.850;2023-12-07T02:05:56;7.43;;;5.40;;
4214;SDS011;2121;48.062;7.850;2023-12-07T02:08:23;5.60;;;5.00;;
4214;SDS011;2121;48.062;7.850;2023-12-07T02:10:49;5.43;;;4.73;;
4214;SDS011;2121;48.062;7.850;2023-12-07T02:13:17;8.23;;;5.60;;
4214;SDS011;2121;48.062;7.850;2023-12-07T02:15:44;5.93;;;5.13;;
4214;SDS011;2121;48.062;7.850;2023-12-07T02:18:28;7.57;;;4.13;;
4214;SDS011;2121;48.062;7.850;2023-12-07T02:21:13;5.30;;;4.33;;
4214;SDS011;2121;48.062;7.850;2023-12-07T02:23:47;5.83;;;4.97;;
4214;SDS011;2121;48.062;7.850;2023-12-07T02:29:25;6.07;;;4.27;;
4214;SDS011;2121;48.062;7.850;2023-12-07T02:31:51;6.93;;;4.33;;
4214;SDS011;2121;48.062;7.850;2023-12-07T02:34:17;8.03;;;4.67;;
4214;SDS011;2121;48.062;7.850;2023-12-07T02:36:44;5.97;;;4.80;;
4214;SDS011;2121;48.062;7.850;2023-12-07T02:39:11;6.73;;;5.23;;
4214;SDS011;2121;48.062;7.850;2023-12-07T02:41:38;5.23;;;4.73;;
4214;SDS011;2121;48.062;7.850;2023-12-07T02:44:06;5.80;;;4.03;;
4214;SDS011;2121;48.062;7.850;2023-12-07T02:46:32;5.97;;;4.80;;
4214;SDS011;2121;48.062;7.850;2023-12-07T02:48:58;11.70;;;5.30;;
4214;SDS011;2121;48.062;7.850;2023-12-07T02:51:24;4.47;;;4.07;;
4214;SDS011;2121;48.062;7.850;2023-12-07T02:53:50;5.27;;;4.43;;
4214;SDS011;2121;48.062;7.850;2023-12-07T02:56:16;6.70;;;3.70;;
4214;SDS011;2121;48.062;7.850;2023-12-07T02:58:41;3.50;;;3.20;;
4214;SDS011;2121;48.062;7.850;2023-12-07T03:01:07;4.57;;;4.13;;
4214;SDS011;2121;48.062;7.850;2023-12-07T03:03:33;6.27;;;4.53;;
4214;SDS011;2121;48.062;7.850;2023-12-07T03:05:58;6.10;;;3.87;;
4214;SDS011;2121;48.062;7.850;2023-12-07T03:08:24;5.03;;;4.47;;
4214;SDS011;2121;48.062;7.850;2023-12-07T03:10:50;4.13;;;3.73;;
4214;SDS011;2121;48.062;7.850;2023-12-07T03:13:15;3.70;;;3.40;;
4214;SDS011;2121;48.062;7.850;2023-12-07T03:15:41;4.37;;;3.93;;
4214;SDS011;2121;48.062;7.850;2023-12-07T03:18:07;5.40;;;3.13;;
4214;SDS011;2121;48.062;7.850;2023-12-07T03:20:33;8.33;;;3.70;;
4214;SDS011;2121;48.062;7.850;2023-12-07T03:22:59;2.90;;;2.70;;
4214;SDS011;2121;48.062;7.850;2023-12-07T03:25:25;3.97;;;3.57;;
4214;SDS011;2121;48.062;7.850;2023-12-07T03:27:51;4.00;;;3.40;;
4214;SDS011;2121;48.062;7.850;2023-12-07T03:30:17;7.07;;;3.93;;
4214;SDS011;2121;48.062;7.850;2023-12-07T03:32:42;3.87;;;3.47;;
4214;SDS011;2121;48.062;7.850;2023-12-07T03:35:08;6.60;;;4.10;;
4214;SDS011;2121;48.062;7.850;2023-12-07T03:37:34;5.70;;;3.23;;
4214;SDS011;2121;48.062;7.850;2023-12-07T03:39:59;4.50;;;3.17;;
4214;SDS011;2121;48.062;7.850;2023-12-07T03:42:25;6.20;;;4.10;;
4214;SDS011;2121;48.062;7.850;2023-12-07T03:44:51;6.67;;;4.53;;
4214;SDS011;2121;48.062;7.850;2023-12-07T03:47:16;6.30;;;4.93;;
4214;SDS011;2121;48.062;7.850;2023-12-07T03:49:43;7.10;;;5.17;;
4214;SDS011;2121;48.062;7.850;2023-12-07T03:52:09;9.70;;;5.67;;
4214;SDS011;2121;48.062;7.850;2023-12-07T03:54:35;5.77;;;4.50;;
4214;SDS011;2121;48.062;7.850;2023-12-07T03:57:02;8.13;;;4.90;;
4214;SDS011;2121;48.062;7.850;2023-12-07T03:59:28;4.70;;;4.20;;
4214;SDS011;2121;48.062;7.850;2023-12-07T04:01:54;9.90;;;5.30;;
4214;SDS011;2121;48.062;7.850;2023-12-07T04:04:20;6.73;;;4.80;;
4214;SDS011;2121;48.062;7.850;2023-12-07T04:06:45;7.13;;;5.20;;
4214;SDS011;2121;48.062;7.850;2023-12-07T04:09:11;18.17;;;6.80;;
4214;SDS011;2121;48.062;7.850;2023-12-07T04:11:37;11.63;;;7.00;;
4214;SDS011;2121;48.062;7.850;2023-12-07T04:14:02;6.87;;;5.13;;
4214;SDS011;2121;48.062;7.850;2023-12-07T04:16:29;8.17;;;5.50;;
4214;SDS011;2121;48.062;7.850;2023-12-07T04:18:54;5.80;;;4.53;;
4214;SDS011;2121;48.062;7.850;2023-12-07T04:21:20;8.43;;;4.97;;
4214;SDS011;2121;48.062;7.850;2023-12-07T04:23:46;6.80;;;4.43;;
4214;SDS011;2121;48.062;7.850;2023-12-07T04:26:12;4.67;;;3.90;;
4214;SDS011;2121;48.062;7.850;2023-12-07T04:28:38;6.60;;;5.03;;
4214;SDS011;2121;48.062;7.850;2023-12-07T04:31:04;4.90;;;4.10;;
4214;SDS011;2121;48.062;7.850;2023-12-07T04:33:29;4.00;;;3.40;;
4214;SDS011;2121;48.062;7.850;2023-12-07T04:35:55;7.20;;;3.97;;
4214;SDS011;2121;48.062;7.850;2023-12-07T04:38:21;5.53;;;3.90;;
4214;SDS011;2121;48.062;7.850;2023-12-07T04:40:47;4.80;;;4.30;;
4214;SDS011;2121;48.062;7.850;2023-12-07T04:43:12;4.33;;;3.87;;
4214;SDS011;2121;48.062;7.850;2023-12-07T04:45:38;5.60;;;4.70;;
4214;SDS011;2121;48.062;7.850;2023-12-07T04:48:04;5.40;;;4.17;;
4214;SDS011;2121;48.062;7.850;2023-12-07T04:50:30;6.80;;;4.90;;
4214;SDS011;2121;48.062;7.850;2023-12-07T04:52:56;4.40;;;4.00;;
4214;SDS011;2121;48.062;7.850;2023-12-07T04:55:22;5.07;;;4.57;;
4214;SDS011;2121;48.062;7.850;2023-12-07T04:57:47;6.53;;;4.73;;
4214;SDS011;2121;48.062;7.850;2023-12-07T05:00:13;6.07;;;4.27;;
4214;SDS011;2121;48.062;7.850;2023-12-07T05:02:39;4.23;;;3.70;;
4214;SDS011;2121;48.062;7.850;2023-12-07T05:05:05;4.40;;;4.00;;
4214;SDS011;2121;48.062;7.850;2023-12-07T05:07:31;6.40;;;3.73;;
4214;SDS011;2121;48.062;7.850;2023-12-07T05:09:57;9.13;;;4.50;;
4214;SDS011;2121;48.062;7.850;2023-12-07T05:12:23;28.33;;;10.87;;
4214;SDS011;2121;48.062;7.850;2023-12-07T05:14:49;40.63;;;14.70;;
4214;SDS011;2121;48.062;7.850;2023-12-07T05:17:15;36.97;;;15.63;;
4214;SDS011;2121;48.062;7.850;2023-12-07T05:19:41;26.23;;;12.33;;
4214;SDS011;2121;48.062;7.850;2023-12-07T05:22:06;44.33;;;17.53;;
4214;SDS011;2121;48.062;7.850;2023-12-07T05:24:33;32.03;;;14.57;;
4214;SDS011;2121;48.062;7.850;2023-12-07T05:27:00;19.57;;;10.03;;
4214;SDS011;2121;48.062;7.850;2023-12-07T05:29:26;18.30;;;11.47;;
4214;SDS011;2121;48.062;7.850;2023-12-07T05:31:51;24.90;;;11.17;;
4214;SDS011;2121;48.062;7.850;2023-12-07T05:34:17;30.50;;;12.90;;
4214;SDS011;2121;48.062;7.850;2023-12-07T05:36:43;24.33;;;10.17;;
4214;SDS011;2121;48.062;7.850;2023-12-07T05:39:11;30.83;;;13.83;;
4214;SDS011;2121;48.062;7.850;2023-12-07T05:41:38;27.90;;;10.43;;
4214;SDS011;2121;48.062;7.850;2023-12-07T05:44:04;15.77;;;9.20;;
4214;SDS011;2121;48.062;7.850;2023-12-07T05:46:29;17.83;;;9.20;;
4214;SDS011;2121;48.062;7.850;2023-12-07T05:48:55;26.13;;;11.17;;
4214;SDS011;2121;48.062;7.850;2023-12-07T05:51:22;19.97;;;10.87;;
4214;SDS011;2121;48.062;7.850;2023-12-07T05:53:48;26.23;;;10.87;;
4214;SDS011;2121;48.062;7.850;2023-12-07T05:56:17;26.33;;;11.30;;
4214;SDS011;2121;48.062;7.850;2023-12-07T05:58:45;21.75;;;11.52;;
4214;SDS011;2121;48.062;7.850;2023-12-07T06:01:12;19.37;;;9.83;;
4214;SDS011;2121;48.062;7.850;2023-12-07T06:03:37;12.83;;;8.13;;
4214;SDS011;2121;48.062;7.850;2023-12-07T06:06:03;20.43;;;8.30;;
4214;SDS011;2121;48.062;7.850;2023-12-07T06:08:30;16.37;;;6.83;;
4214;SDS011;2121;48.062;7.850;2023-12-07T06:10:55;17.90;;;7.07;;
4214;SDS011;2121;48.062;7.850;2023-12-07T06:13:21;11.83;;;8.40;;
4214;SDS011;2121;48.062;7.850;2023-12-07T06:15:47;9.80;;;6.20;;
4214;SDS011;2121;48.062;7.850;2023-12-07T06:18:12;9.37;;;5.97;;
4214;SDS011;2121;48.062;7.850;2023-12-07T06:20:38;5.87;;;5.27;;
4214;SDS011;2121;48.062;7.850;2023-12-07T06:23:04;9.57;;;5.23;;
4214;SDS011;2121;48.062;7.850;2023-12-07T06:25:30;14.83;;;6.70;;
4214;SDS011;2121;48.062;7.850;2023-12-07T06:27:55;53.30;;;22.27;;
4214;SDS011;2121;48.062;7.850;2023-12-07T06:30:21;37.35;;;19.73;;
4214;SDS011;2121;48.062;7.850;2023-12-07T06:32:47;13.20;;;7.97;;
4214;SDS011;2121;48.062;7.850;2023-12-07T06:35:12;8.10;;;6.70;;
4214;SDS011;2121;48.062;7.850;2023-12-07T06:37:38;13.93;;;7.95;;
4214;SDS011;2121;48.062;7.850;2023-12-07T06:40:10;8.43;;;5.97;;
4214;SDS011;2121;48.062;7.850;2023-12-07T06:42:36;7.30;;;5.20;;
4214;SDS011;2121;48.062;7.850;2023-12-07T06:45:03;11.43;;;7.20;;
4214;SDS011;2121;48.062;7.850;2023-12-07T06:47:29;11.73;;;7.37;;
4214;SDS011;2121;48.062;7.850;2023-12-07T06:49:55;7.57;;;5.93;;
4214;SDS011;2121;48.062;7.850;2023-12-07T06:52:21;6.27;;;5.23;;
4214;SDS011;2121;48.062;7.850;2023-12-07T06:54:47;7.80;;;4.93;;
4214;SDS011;2121;48.062;7.850;2023-12-07T06:57:13;10.20;;;6.80;;
4214;SDS011;2121;48.062;7.850;2023-12-07T06:59:38;7.93;;;7.00;;
4214;SDS011;2121;48.062;7.850;2023-12-07T07:02:05;8.27;;;5.53;;
4214;SDS011;2121;48.062;7.850;2023-12-07T07:04:32;5.20;;;4.30;;
4214;SDS011;2121;48.062;7.850;2023-12-07T07:06:57;8.80;;;4.20;;
4214;SDS011;2121;48.062;7.850;2023-12-07T07:09:23;6.60;;;4.53;;
4214;SDS011;2121;48.062;7.850;2023-12-07T07:11:50;4.63;;;4.17;;
4214;SDS011;2121;48.062;7.850;2023-12-07T07:14:16;6.07;;;5.40;;
4214;SDS011;2121;48.062;7.850;2023-12-07T07:16:42;6.07;;;4.63;;
4214;SDS011;2121;48.062;7.850;2023-12-07T07:19:07;5.60;;;4.50;;
4214;SDS011;2121;48.062;7.850;2023-12-07T07:21:33;5.13;;;4.63;;
4214;SDS011;2121;48.062;7.850;2023-12-07T07:23:59;6.30;;;4.70;;
4214;SDS011;2121;48.062;7.850;2023-12-07T07:26:25;4.70;;;3.50;;
4214;SDS011;2121;48.062;7.850;2023-12-07T07:28:52;5.23;;;4.43;;
4214;SDS011;2121;48.062;7.850;2023-12-07T07:31:18;7.50;;;4.37;;
4214;SDS011;2121;48.062;7.850;2023-12-07T07:33:44;7.20;;;5.30;;
4214;SDS011;2121;48.062;7.850;2023-12-07T07:36:12;8.63;;;6.90;;
4214;SDS011;2121;48.062;7.850;2023-12-07T07:38:40;15.00;;;8.80;;
4214;SDS011;2121;48.062;7.850;2023-12-07T07:41:06;9.53;;;6.70;;
4214;SDS011;2121;48.062;7.850;2023-12-07T07:43:32;8.07;;;6.50;;
4214;SDS011;2121;48.062;7.850;2023-12-07T07:45:59;12.20;;;7.73;;
4214;SDS011;2121;48.062;7.850;2023-12-07T07:48:25;8.47;;;7.03;;
4214;SDS011;2121;48.062;7.850;2023-12-07T07:50:51;8.27;;;7.40;;
4214;SDS011;2121;48.062;7.850;2023-12-07T07:53:17;7.43;;;5.40;;
4214;SDS011;2121;48.062;7.850;2023-12-07T07:55:43;6.20;;;5.17;;
4214;SDS011;2121;48.062;7.850;2023-12-07T07:58:08;9.57;;;6.30;;
4214;SDS011;2121;48.062;7.850;2023-12-07T08:00:34;10.63;;;6.10;;
4214;SDS011;2121;48.062;7.850;2023-12-07T08:03:00;8.73;;;6.40;;
4214;SDS011;2121;48.062;7.850;2023-12-07T08:05:26;12.73;;;9.23;;
4214;SDS011;2121;48.062;7.850;2023-12-07T08:07:52;16.07;;;8.73;;
4214;SDS011;2121;48.062;7.850;2023-12-07T08:10:17;20.63;;;10.50;;
4214;SDS011;2121;48.062;7.850;2023-12-07T08:12:43;16.80;;;11.43;;
4214;SDS011;2121;48.062;7.850;2023-12-07T08:15:09;46.67;;;23.40;;
4214;SDS011;2121;48.062;7.850;2023-12-07T08:17:45;54.77;;;24.37;;
4214;SDS011;2121;48.062;7.850;2023-12-07T08:20:10;37.20;;;19.20;;
4214;SDS011;2121;48.062;7.850;2023-12-07T08:22:38;23.80;;;12.93;;
4214;SDS011;2121;48.062;7.850;2023-12-07T08:25:06;10.53;;;9.00;;
4214;SDS011;2121;48.062;7.850;2023-12-07T08:27:34;9.93;;;7.50;;
4214;SDS011;2121;48.062;7.850;2023-12-07T08:30:00;8.53;;;6.47;;
4214;SDS011;2121;48.062;7.850;2023-12-07T08:32:26;9.37;;;6.97;;
4214;SDS011;2121;48.062;7.850;2023-12-07T08:34:52;14.37;;;10.00;;
4214;SDS011;2121;48.062;7.850;2023-12-07T08:37:18;17.40;;;11.03;;
4214;SDS011;2121;48.062;7.850;2023-12-07T08:39:44;12.53;;;8.80;;
4214;SDS011;2121;48.062;7.850;2023-12-07T08:42:10;9.97;;;7.83;;
4214;SDS011;2121;48.062;7.850;2023-12-07T08:44:37;10.63;;;8.53;;
4214;SDS011;2121;48.062;7.850;2023-12-07T08:47:02;15.10;;;7.87;;
4214;SDS011;2121;48.062;7.850;2023-12-07T08:49:29;12.37;;;8.00;;
4214;SDS011;2121;48.062;7.850;2023-12-07T08:51:56;16.10;;;8.60;;
4214;SDS011;2121;48.062;7.850;2023-12-07T08:54:22;12.20;;;8.50;;
4214;SDS011;2121;48.062;7.850;2023-12-07T08:56:48;18.93;;;11.13;;
4214;SDS011;2121;48.062;7.850;2023-12-07T08:59:14;10.77;;;8.50;;
4214;SDS011;2121;48.062;7.850;2023-12-07T09:01:39;11.70;;;9.33;;
4214;SDS011;2121;48.062;7.850;2023-12-07T09:04:05;15.33;;;8.53;;
4214;SDS011;2121;48.062;7.850;2023-12-07T09:06:31;14.70;;;9.57;;
4214;SDS011;2121;48.062;7.850;2023-12-07T09:08:57;12.20;;;8.13;;
4214;SDS011;2121;48.062;7.850;2023-12-07T09:11:23;11.07;;;7.87;;
4214;SDS011;2121;48.062;7.850;2023-12-07T09:13:49;14.40;;;8.13;;
4214;SDS011;2121;48.062;7.850;2023-12-07T09:16:14;14.47;;;8.50;;
4214;SDS011;2121;48.062;7.850;2023-12-07T09:18:43;11.70;;;7.63;;
4214;SDS011;2121;48.062;7.850;2023-12-07T09:21:11;9.67;;;8.33;;
4214;SDS011;2121;48.062;7.850;2023-12-07T09:23:36;10.90;;;7.70;;
4214;SDS011;2121;48.062;7.850;2023-12-07T09:26:02;12.90;;;8.40;;
4214;SDS011;2121;48.062;7.850;2023-12-07T09:28:29;7.30;;;6.60;;
4214;SDS011;2121;48.062;7.850;2023-12-07T09:30:56;13.37;;;7.77;;
4214;SDS011;2121;48.062;7.850;2023-12-07T09:33:22;11.80;;;7.77;;
4214;SDS011;2121;48.062;7.850;2023-12-07T09:35:47;14.80;;;8.87;;
4214;SDS011;2121;48.062;7.850;2023-12-07T09:38:14;9.53;;;7.30;;
4214;SDS011;2121;48.062;7.850;2023-12-07T09:40:39;18.70;;;8.60;;
4214;SDS011;2121;48.062;7.850;2023-12-07T09:43:05;8.67;;;7.50;;
4214;SDS011;2121;48.062;7.850;2023-12-07T09:45:31;9.70;;;7.70;;
4214;SDS011;2121;48.062;7.850;2023-12-07T09:47:57;12.00;;;8.80;;
4214;SDS011;2121;48.062;7.850;2023-12-07T09:50:25;17.20;;;9.37;;
4214;SDS011;2121;48.062;7.850;2023-12-07T09:52:56;8.83;;;7.80;;
4214;SDS011;2121;48.062;7.850;2023-12-07T09:55:23;9.20;;;7.60;;
4214;SDS011;2121;48.062;7.850;2023-12-07T09:57:50;8.80;;;7.73;;
4214;SDS011;2121;48.062;7.850;2023-12-07T10:00:16;8.53;;;7.47;;
4214;SDS011;2121;48.062;7.850;2023-12-07T10:02:43;11.30;;;6.93;;
4214;SDS011;2121;48.062;7.850;2023-12-07T10:05:12;8.40;;;7.00;;
4214;SDS011;2121;48.062;7.850;2023-12-07T10:07:42;8.40;;;7.60;;
4214;SDS011;2121;48.062;7.850;2023-12-07T10:10:13;16.83;;;7.90;;
4214;SDS011;2121;48.062;7.850;2023-12-07T10:12:44;14.77;;;8.53;;
4214;SDS011;2121;48.062;7.850;2023-12-07T10:15:17;10.40;;;7.40;;
4214;SDS011;2121;48.062;7.850;2023-12-07T10:20:17;7.20;;;6.20;;
4214;SDS011;2121;48.062;7.850;2023-12-07T10:22:48;8.77;;;6.67;;
4214;SDS011;2121;48.062;7.850;2023-12-07T10:25:32;8.37;;;5.87;;
4214;SDS011;2121;48.062;7.850;2023-12-07T10:28:02;6.50;;;5.90;;
4214;SDS011;2121;48.062;7.850;2023-12-07T10:30:32;8.77;;;6.43;;
4214;SDS011;2121;48.062;7.850;2023-12-07T10:32:58;6.40;;;5.80;;
4214;SDS011;2121;48.062;7.850;2023-12-07T10:35:24;7.63;;;6.00;;
4214;SDS011;2121;48.062;7.850;2023-12-07T10:37:50;9.60;;;7.00;;
4214;SDS011;2121;48.062;7.850;2023-12-07T10:40:16;10.97;;;7.07;;
4214;SDS011;2121;48.062;7.850;2023-12-07T10:42:46;11.63;;;8.30;;
4214;SDS011;2121;48.062;7.850;2023-12-07T10:45:14;16.43;;;7.60;;
4214;SDS011;2121;48.062;7.850;2023-12-07T10:47:40;8.27;;;7.23;;
4214;SDS011;2121;48.062;7.850;2023-12-07T10:50:09;9.57;;;7.93;;
4214;SDS011;2121;48.062;7.850;2023-12-07T10:52:39;15.37;;;9.30;;
4214;SDS011;2121;48.062;7.850;2023-12-07T10:55:14;11.20;;;7.40;;
4214;SDS011;2121;48.062;7.850;2023-12-07T10:57:45;9.33;;;8.07;;
4214;SDS011;2121;48.062;7.850;2023-12-07T11:00:12;16.13;;;8.37;;
4214;SDS011;2121;48.062;7.850;2023-12-07T11:02:38;11.73;;;8.43;;
4214;SDS011;2121;48.062;7.850;2023-12-07T11:05:06;20.30;;;11.10;;
4214;SDS011;2121;48.062;7.850;2023-12-07T11:07:47;11.47;;;8.23;;
4214;SDS011;2121;48.062;7.850;2023-12-07T11:13:25;16.20;;;8.97;;
4214;SDS011;2121;48.062;7.850;2023-12-07T11:15:57;15.40;;;9.60;;
4214;SDS011;2121;48.062;7.850;2023-12-07T11:18:26;11.70;;;8.80;;
4214;SDS011;2121;48.062;7.850;2023-12-07T11:20:53;12.90;;;8.30;;
4214;SDS011;2121;48.062;7.850;2023-12-07T11:23:20;15.73;;;9.80;;
4214;SDS011;2121;48.062;7.850;2023-12-07T11:25:47;10.80;;;7.67;;
4214;SDS011;2121;48.062;7.850;2023-12-07T11:28:15;8.27;;;7.10;;
4214;SDS011;2121;48.062;7.850;2023-12-07T11:30:42;8.17;;;6.27;;
4214;SDS011;2121;48.062;7.850;2023-12-07T11:33:10;8.63;;;6.90;;
4214;SDS011;2121;48.062;7.850;2023-12-07T11:38:26;11.07;;;7.30;;
4214;SDS011;2121;48.062;7.850;2023-12-07T11:40:53;9.67;;;7.07;;
4214;SDS011;2121;48.062;7.850;2023-12-07T11:45:57;7.33;;;6.40;;
4214;SDS011;2121;48.062;7.850;2023-12-07T11:48:24;9.30;;;6.00;;
4214;SDS011;2121;48.062;7.850;2023-12-07T11:53:25;10.83;;;7.03;;
4214;SDS011;2121;48.062;7.850;2023-12-07T11:56:01;9.67;;;6.63;;
4214;SDS011;2121;48.062;7.850;2023-12-07T11:58:30;9.60;;;6.00;;
4214;SDS011;2121;48.062;7.850;2023-12-07T12:00:57;7.67;;;5.57;;
4214;SDS011;2121;48.062;7.850;2023-12-07T12:03:24;7.80;;;6.50;;
4214;SDS011;2121;48.062;7.850;2023-12-07T12:05:56;8.10;;;6.10;;
4214;SDS011;2121;48.062;7.850;2023-12-07T12:08:21;10.50;;;7.40;;
4214;SDS011;2121;48.062;7.850;2023-12-07T12:10:49;10.43;;;6.80;;
4214;SDS011;2121;48.062;7.850;2023-12-07T12:13:17;15.50;;;7.40;;
4214;SDS011;2121;48.062;7.850;2023-12-07T12:15:44;11.70;;;7.60;;
4214;SDS011;2121;48.062;7.850;2023-12-07T12:18:12;8.17;;;6.37;;
4214;SDS011;2121;48.062;7.850;2023-12-07T12:20:39;9.33;;;7.10;;
4214;SDS011;2121;48.062;7.850;2023-12-07T12:23:05;14.43;;;8.20;;
4214;SDS011;2121;48.062;7.850;2023-12-07T12:25:31;10.07;;;7.60;;
4214;SDS011;2121;48.062;7.850;2023-12-07T12:27:58;12.20;;;7.90;;
4214;SDS011;2121;48.062;7.850;2023-12-07T12:30:29;9.03;;;7.50;;
4214;SDS011;2121;48.062;7.850;2023-12-07T12:32:55;10.50;;;6.93;;
4214;SDS011;2121;48.062;7.850;2023-12-07T12:35:22;12.87;;;7.40;;
4214;SDS011;2121;48.062;7.850;2023-12-07T12:37:48;9.67;;;6.43;;
4214;SDS011;2121;48.062;7.850;2023-12-07T12:40:15;9.37;;;7.33;;
4214;SDS011;2121;48.062;7.850;2023-12-07T12:42:44;10.53;;;7.67;;
4214;SDS011;2121;48.062;7.850;2023-12-07T12:45:12;11.50;;;7.47;;
4214;SDS011;2121;48.062;7.850;2023-12-07T12:47:43;10.07;;;6.97;;
4214;SDS011;2121;48.062;7.850;2023-12-07T12:53:04;11.93;;;8.03;;
4214;SDS011;2121;48.062;7.850;2023-12-07T12:55:32;12.90;;;8.83;;
4214;SDS011;2121;48.062;7.850;2023-12-07T12:58:01;9.10;;;7.90;;
4214;SDS011;2121;48.062;7.850;2023-12-07T13:00:29;13.70;;;7.93;;
4214;SDS011;2121;48.062;7.850;2023-12-07T13:02:58;11.40;;;7.80;;
4214;SDS011;2121;48.062;7.850;2023-12-07T13:05:25;13.50;;;8.03;;
4214;SDS011;2121;48.062;7.850;2023-12-07T13:07:52;10.90;;;8.27;;
4214;SDS011;2121;48.062;7.850;2023-12-07T13:10:18;13.27;;;7.83;;
4214;SDS011;2121;48.062;7.850;2023-12-07T13:12:44;14.07;;;8.73;;
4214;SDS011;2121;48.062;7.850;2023-12-07T13:15:10;12.97;;;9.10;;
4214;SDS011;2121;48.062;7.850;2023-12-07T13:17:40;12.10;;;8.07;;
4214;SDS011;2121;48.062;7.850;2023-12-07T13:20:07;13.27;;;8.80;;
4214;SDS011;2121;48.062;7.850;2023-12-07T13:22:38;14.77;;;8.53;;
4214;SDS011;2121;48.062;7.850;2023-12-07T13:25:05;14.53;;;9.70;;
4214;SDS011;2121;48.062;7.850;2023-12-07T13:27:32;13.53;;;9.93;;
4214;SDS011;2121;48.062;7.850;2023-12-07T13:29:59;18.80;;;10.00;;
4214;SDS011;2121;48.062;7.850;2023-12-07T13:32:25;15.40;;;10.50;;
4214;SDS011;2121;48.062;7.850;2023-12-07T13:34:51;14.93;;;10.50;;
4214;SDS011;2121;48.062;7.850;2023-12-07T13:37:17;18.53;;;11.70;;
4214;SDS011;2121;48.062;7.850;2023-12-07T13:39:43;17.60;;;10.53;;
4214;SDS011;2121;48.062;7.850;2023-12-07T13:42:09;19.40;;;10.60;;
4214;SDS011;2121;48.062;7.850;2023-12-07T13:44:37;20.13;;;10.50;;
4214;SDS011;2121;48.062;7.850;2023-12-07T13:47:03;15.70;;;9.90;;
4214;SDS011;2121;48.062;7.850;2023-12-07T13:49:29;18.10;;;9.83;;
4214;SDS011;2121;48.062;7.850;2023-12-07T13:51:54;15.70;;;10.40;;
4214;SDS011;2121;48.062;7.850;2023-12-07T13:54:20;22.23;;;12.93;;
4214;SDS011;2121;48.062;7.850;2023-12-07T13:56:47;16.13;;;10.33;;
4214;SDS011;2121;48.062;7.850;2023-12-07T13:59:12;11.97;;;9.40;;
4214;SDS011;2121;48.062;7.850;2023-12-07T14:01:38;14.40;;;9.80;;
4214;SDS011;2121;48.062;7.850;2023-12-07T14:04:05;17.23;;;10.40;;
4214;SDS011;2121;48.062;7.850;2023-12-07T14:06:32;16.60;;;10.10;;
4214;SDS011;2121;48.062;7.850;2023-12-07T14:09:00;13.97;;;9.73;;
4214;SDS011;2121;48.062;7.850;2023-12-07T14:11:27;14.10;;;9.07;;
4214;SDS011;2121;48.062;7.850;2023-12-07T14:13:53;15.70;;;10.97;;
4214;SDS011;2121;48.062;7.850;2023-12-07T14:16:20;14.37;;;9.80;;
4214;SDS011;2121;48.062;7.850;2023-12-07T14:18:46;16.33;;;10.00;;
4214;SDS011;2121;48.062;7.850;2023-12-07T14:21:12;19.20;;;10.90;;
4214;SDS011;2121;48.062;7.850;2023-12-07T14:23:39;16.03;;;10.07;;
4214;SDS011;2121;48.062;7.850;2023-12-07T14:26:05;22.80;;;11.67;;
4214;SDS011;2121;48.062;7.850;2023-12-07T14:28:31;19.77;;;10.30;;
4214;SDS011;2121;48.062;7.850;2023-12-07T14:30:59;14.20;;;10.50;;
4214;SDS011;2121;48.062;7.850;2023-12-07T14:33:25;18.93;;;10.93;;
4214;SDS011;2121;48.062;7.850;2023-12-07T14:35:50;20.87;;;12.60;;
4214;SDS011;2121;48.062;7.850;2023-12-07T14:38:16;24.40;;;14.60;;
4214;SDS011;2121;48.062;7.850;2023-12-07T14:40:42;19.33;;;11.43;;
4214;SDS011;2121;48.062;7.850;2023-12-07T14:43:08;19.27;;;11.03;;
4214;SDS011;2121;48.062;7.850;2023-12-07T14:45:34;18.40;;;10.13;;
4214;SDS011;2121;48.062;7.850;2023-12-07T14:48:00;14.50;;;9.30;;
4214;SDS011;2121;48.062;7.850;2023-12-07T14:50:25;20.60;;;11.87;;
4214;SDS011;2121;48.062;7.850;2023-12-07T14:52:51;22.40;;;11.90;;
4214;SDS011;2121;48.062;7.850;2023-12-07T14:55:17;16.90;;;11.97;;
4214;SDS011;2121;48.062;7.850;2023-12-07T14:57:43;20.47;;;14.17;;
4214;SDS011;2121;48.062;7.850;2023-12-07T15:00:10;27.63;;;14.23;;
4214;SDS011;2121;48.062;7.850;2023-12-07T15:02:36;20.37;;;12.53;;
4214;SDS011;2121;48.062;7.850;2023-12-07T15:05:02;18.77;;;11.70;;
4214;SDS011;2121;48.062;7.850;2023-12-07T15:07:29;20.47;;;13.10;;
4214;SDS011;2121;48.062;7.850;2023-12-07T15:09:55;19.43;;;12.30;;
4214;SDS011;2121;48.062;7.850;2023-12-07T15:12:22;27.57;;;12.93;;
4214;SDS011;2121;48.062;7.850;2023-12-07T15:14:50;21.63;;;12.17;;
4214;SDS011;2121;48.062;7.850;2023-12-07T15:17:16;35.67;;;15.07;;
4214;SDS011;2121;48.062;7.850;2023-12-07T15:19:42;47.83;;;24.60;;
4214;SDS011;2121;48.062;7.850;2023-12-07T15:22:08;73.80;;;30.77;;